METAR Data
IDs: Format: Raw Decoded Include TAF

Data at: 1209 UTC 24 May 2022

METAR for:KHLX (Hillsville/Twin Cnty, VA, US)
Text:KHLX 241155Z AUTO 01005KT 2 1/2SM BR OVC004 12/11 A3015 RMK AO2 60007 70186 T01150110 10125 20113
Temperature: 11.5°C ( 53°F)
Dewpoint: 11.0°C ( 52°F) [RH = 97%]
Pressure (altimeter):30.15 inches Hg (1021.1 mb)
Winds:from the N (10 degrees) at 6 MPH (5 knots; 2.6 m/s)
Visibility: 2.50 sm ( 4.02 km)
Ceiling:400 feet AGL
Clouds: overcast cloud deck at 400 feet AGL
Weather:BR (mist)
QC Flag:automated observation with no human augmentation